createdAt,value
2019-04-04T00:00:48.556Z,16.67
2019-04-04T00:03:16.981Z,15.47
2019-04-04T00:05:45.403Z,16.20
2019-04-04T00:08:13.809Z,17.37
2019-04-04T00:10:42.240Z,15.37
2019-04-04T00:13:11.220Z,15.50
2019-04-04T00:15:40.254Z,16.93
2019-04-04T00:18:08.869Z,15.70
2019-04-04T00:20:37.266Z,19.10
2019-04-04T00:23:06.917Z,16.33
2019-04-04T00:25:36.023Z,16.67
2019-04-04T00:28:04.436Z,17.13
2019-04-04T00:30:32.882Z,17.43
2019-04-04T00:33:01.562Z,18.43
2019-04-04T00:35:31.133Z,18.10
2019-04-04T00:38:00.355Z,20.20
2019-04-04T00:40:28.778Z,18.67
2019-04-04T00:42:57.182Z,17.07
2019-04-04T00:45:28.630Z,15.20
2019-04-04T00:47:55.744Z,17.30
2019-04-04T00:50:24.179Z,18.00
2019-04-04T00:52:52.579Z,16.80
2019-04-04T00:55:21.001Z,16.80
2019-04-04T00:57:50.362Z,16.10
2019-04-04T01:00:19.321Z,20.13
2019-04-04T01:02:47.726Z,16.40
2019-04-04T01:05:16.140Z,20.60
2019-04-04T01:07:44.561Z,15.93
2019-04-04T01:10:13.310Z,17.17
2019-04-04T01:12:41.730Z,17.63
2019-04-04T01:15:10.487Z,17.00
2019-04-04T01:17:38.893Z,16.83
2019-04-04T01:20:09.225Z,17.43
2019-04-04T01:22:37.653Z,15.67
2019-04-04T01:25:07.891Z,17.43
2019-04-04T01:27:36.894Z,17.73
2019-04-04T01:30:07.534Z,16.53
2019-04-04T01:32:35.949Z,19.20
2019-04-04T01:35:06.905Z,17.00
2019-04-04T01:37:35.330Z,17.73
2019-04-04T01:40:04.615Z,16.63
2019-04-04T01:42:33.025Z,16.60
2019-04-04T01:45:01.456Z,18.70
2019-04-04T01:47:29.880Z,17.57
2019-04-04T01:49:58.315Z,20.30
2019-04-04T01:52:28.680Z,20.60
2019-04-04T01:54:57.163Z,18.07
2019-04-04T01:57:25.570Z,17.27
2019-04-04T01:59:54.175Z,21.50
2019-04-04T02:02:22.605Z,19.87
2019-04-04T02:04:51.296Z,22.00
2019-04-04T02:07:19.968Z,18.10
2019-04-04T02:09:48.383Z,17.93
2019-04-04T02:12:16.802Z,24.20
2019-04-04T02:14:45.389Z,19.10
2019-04-04T02:17:13.791Z,19.03
2019-04-04T02:19:42.205Z,19.10
2019-04-04T02:22:10.634Z,20.57
2019-04-04T02:24:39.050Z,18.37
2019-04-04T02:27:07.630Z,18.40
2019-04-04T02:29:36.351Z,20.23
2019-04-04T02:32:09.647Z,17.50
2019-04-04T02:34:38.507Z,16.80
2019-04-04T02:37:07.067Z,19.37
2019-04-04T02:39:36.067Z,16.77
2019-04-04T02:42:05.076Z,18.20
2019-04-04T02:44:33.552Z,18.77
2019-04-04T02:47:01.982Z,16.57
2019-04-04T02:49:30.400Z,18.60
2019-04-04T02:51:59.203Z,18.50
2019-04-04T02:54:27.835Z,17.47
2019-04-04T02:56:56.243Z,18.87
2019-04-04T02:59:24.955Z,20.33
2019-04-04T03:01:53.752Z,18.20
2019-04-04T03:04:22.170Z,18.73
2019-04-04T03:06:50.575Z,20.33
2019-04-04T03:09:19.026Z,16.67
2019-04-04T03:11:47.566Z,17.53
2019-04-04T03:14:15.970Z,18.47
2019-04-04T03:16:44.392Z,18.40
2019-04-04T03:19:12.800Z,18.30
2019-04-04T03:21:41.228Z,19.17
2019-04-04T03:24:09.635Z,20.03
2019-04-04T03:26:38.059Z,18.43
2019-04-04T03:29:10.235Z,22.10
2019-04-04T03:31:38.510Z,17.20
2019-04-04T03:34:11.504Z,20.90
2019-04-04T03:36:36.919Z,17.27
2019-04-04T03:39:06.706Z,18.43
2019-04-04T03:41:36.111Z,20.03
2019-04-04T03:44:04.878Z,25.13
2019-04-04T03:46:38.362Z,18.97
2019-04-04T03:49:03.454Z,19.43
2019-04-04T03:51:32.210Z,17.83
2019-04-04T03:54:23.344Z,16.93
2019-04-04T03:56:51.776Z,22.53
2019-04-04T03:59:20.285Z,19.90
2019-04-04T04:02:08.217Z,17.47
2019-04-04T04:04:36.663Z,19.10
2019-04-04T04:07:05.074Z,17.23
2019-04-04T04:09:33.615Z,19.30
2019-04-04T04:12:02.295Z,20.67
2019-04-04T04:14:30.703Z,19.73
2019-04-04T04:16:59.133Z,17.43
2019-04-04T04:19:30.277Z,21.13
2019-04-04T04:21:57.726Z,19.63
2019-04-04T04:24:26.743Z,17.70
2019-04-04T04:26:56.286Z,18.07
2019-04-04T04:29:24.718Z,18.10
2019-04-04T04:31:53.117Z,16.80
2019-04-04T04:34:21.538Z,16.77
2019-04-04T04:36:49.938Z,18.63
2019-04-04T04:39:18.354Z,18.83
2019-04-04T04:41:47.099Z,19.83
2019-04-04T04:44:15.508Z,17.37
2019-04-04T04:46:43.919Z,17.60
2019-04-04T04:49:12.325Z,15.90
2019-04-04T04:51:43.110Z,22.23
2019-04-04T04:54:10.874Z,22.20
2019-04-04T04:56:39.304Z,18.47
2019-04-04T04:59:08.018Z,17.50
2019-04-04T05:01:36.437Z,18.93
2019-04-04T05:04:04.849Z,18.23
2019-04-04T05:06:35.294Z,31.07
2019-04-04T05:09:05.275Z,17.00
2019-04-04T05:11:33.693Z,18.30
2019-04-04T05:14:02.173Z,21.20
2019-04-04T05:16:30.603Z,19.50
2019-04-04T05:18:59.016Z,15.70
2019-04-04T05:21:28.848Z,18.53
2019-04-04T05:23:57.528Z,19.37
2019-04-04T05:26:25.929Z,25.10
2019-04-04T05:28:56.829Z,22.00
2019-04-04T05:31:24.563Z,20.70
2019-04-04T05:33:53.020Z,18.37
2019-04-04T05:36:21.444Z,17.87
2019-04-04T05:38:49.857Z,19.33
2019-04-04T05:41:18.358Z,17.63
2019-04-04T05:43:46.779Z,29.67
2019-04-04T05:46:18.520Z,114.77
2019-04-04T05:48:45.334Z,74.23
2019-04-04T05:51:15.212Z,57.43
2019-04-04T05:53:44.059Z,46.97
2019-04-04T05:56:13.013Z,35.13
2019-04-04T05:58:42.662Z,32.53
2019-04-04T06:01:12.747Z,27.47
2019-04-04T06:03:41.147Z,25.43
2019-04-04T06:06:10.645Z,21.90
2019-04-04T06:08:43.074Z,20.67
2019-04-04T06:11:09.366Z,21.03
2019-04-04T06:13:37.790Z,17.60
2019-04-04T06:16:06.211Z,30.30
2019-04-04T06:18:34.837Z,19.93
2019-04-04T06:21:03.297Z,20.53
2019-04-04T06:23:31.755Z,19.57
2019-04-04T06:26:00.244Z,22.20
2019-04-04T06:28:28.662Z,19.80
2019-04-04T06:30:57.097Z,22.30
2019-04-04T06:33:25.503Z,20.27
2019-04-04T06:35:53.930Z,20.00
2019-04-04T06:38:23.399Z,24.10
2019-04-04T06:40:52.687Z,19.10
2019-04-04T06:43:21.144Z,20.13
2019-04-04T06:45:49.557Z,20.50
2019-04-04T06:48:17.980Z,19.13
2019-04-04T06:50:46.460Z,17.30
2019-04-04T06:53:14.879Z,20.10
2019-04-04T06:55:43.290Z,20.80
2019-04-04T06:58:11.727Z,21.20
2019-04-04T07:00:42.043Z,19.50
2019-04-04T07:03:10.262Z,18.23
2019-04-04T07:05:38.998Z,22.60
2019-04-04T07:08:07.659Z,21.73
2019-04-04T07:10:36.559Z,19.20
2019-04-04T07:13:20.608Z,18.80
2019-04-04T07:15:46.145Z,21.43
2019-04-04T07:18:05.239Z,18.37
2019-04-04T07:20:33.659Z,18.67
2019-04-04T07:23:02.083Z,20.53
2019-04-04T07:25:30.486Z,21.47
2019-04-04T07:27:59.104Z,34.93
2019-04-04T07:30:28.521Z,19.77
2019-04-04T07:32:57.828Z,19.70
2019-04-04T07:35:26.236Z,21.60
2019-04-04T07:37:57.465Z,18.97
2019-04-04T07:40:25.096Z,18.33
2019-04-04T07:42:53.649Z,19.27
2019-04-04T07:45:22.080Z,20.67
2019-04-04T07:47:52.232Z,16.97
2019-04-04T07:50:20.636Z,18.20
2019-04-04T07:52:49.042Z,17.43
2019-04-04T07:55:17.468Z,19.37
2019-04-04T07:57:45.900Z,21.10
2019-04-04T08:00:14.767Z,19.00
2019-04-04T08:02:43.200Z,17.87
2019-04-04T08:05:13.307Z,18.23
2019-04-04T08:07:42.025Z,16.83
2019-04-04T08:10:20.552Z,17.97
2019-04-04T08:12:41.275Z,17.83
2019-04-04T08:15:10.161Z,23.30
2019-04-04T08:17:38.581Z,18.10
2019-04-04T08:20:07.642Z,18.87
2019-04-04T08:22:39.305Z,16.47
2019-04-04T08:25:06.568Z,18.00
2019-04-04T08:27:54.336Z,18.07
2019-04-04T08:30:22.751Z,19.67
2019-04-04T08:32:51.154Z,20.83
2019-04-04T08:35:19.919Z,28.40
2019-04-04T08:37:48.334Z,19.50
2019-04-04T08:40:16.783Z,18.77
2019-04-04T08:42:45.202Z,20.33
2019-04-04T08:45:13.782Z,19.07
2019-04-04T08:47:42.224Z,17.77
2019-04-04T08:50:11.071Z,20.13
2019-04-04T08:52:39.623Z,20.97
2019-04-04T08:55:08.492Z,19.57
2019-04-04T08:57:36.896Z,17.77
2019-04-04T09:00:10.274Z,16.80
2019-04-04T09:02:38.687Z,21.43
2019-04-04T09:05:12.393Z,19.87
2019-04-04T09:07:37.539Z,17.67
2019-04-04T09:10:07.815Z,19.60
2019-04-04T09:12:36.223Z,19.10
2019-04-04T09:15:07.889Z,16.37
2019-04-04T09:17:36.292Z,16.40
2019-04-04T09:20:09.476Z,17.97
2019-04-04T09:22:37.248Z,19.70
2019-04-04T09:25:10.648Z,16.73
2019-04-04T09:27:39.407Z,16.33
2019-04-04T09:30:08.713Z,19.03
2019-04-04T09:32:37.213Z,23.20
2019-04-04T09:35:07.389Z,19.50
2019-04-04T09:37:35.815Z,18.97
2019-04-04T09:40:08.865Z,18.23
2019-04-04T09:42:37.315Z,19.27
2019-04-04T09:45:09.063Z,19.30
2019-04-04T09:47:37.545Z,21.17
2019-04-04T09:50:09.141Z,17.50
2019-04-04T09:52:37.551Z,18.23
2019-04-04T09:55:08.301Z,18.20
2019-04-04T09:57:36.881Z,18.57
2019-04-04T10:00:11.051Z,17.60
2019-04-04T10:02:39.463Z,20.80
2019-04-04T10:05:09.035Z,19.07
2019-04-04T10:07:37.460Z,18.20
2019-04-04T10:10:07.885Z,17.97
2019-04-04T10:12:36.331Z,18.53
2019-04-04T10:15:05.861Z,20.03
2019-04-04T10:17:34.293Z,19.50
2019-04-04T10:20:22.042Z,17.77
2019-04-04T10:22:50.477Z,18.53
2019-04-04T10:25:18.894Z,18.97
2019-04-04T10:27:47.326Z,20.87
2019-04-04T10:30:16.376Z,22.17
2019-04-04T10:32:44.786Z,19.30
2019-04-04T10:35:13.546Z,18.23
2019-04-04T10:37:41.962Z,18.43
2019-04-04T10:40:10.750Z,19.73
2019-04-04T10:42:39.160Z,20.40
2019-04-04T10:45:08.720Z,30.40
2019-04-04T10:47:37.136Z,20.83
2019-04-04T10:50:07.091Z,18.40
2019-04-04T10:52:35.587Z,20.73
2019-04-04T10:55:05.749Z,20.93
2019-04-04T10:57:35.242Z,21.17
2019-04-04T11:00:06.770Z,22.13
2019-04-04T11:02:35.197Z,22.03
2019-04-04T11:05:04.605Z,20.50
2019-04-04T11:07:33.009Z,22.80
2019-04-04T11:10:01.527Z,18.20
2019-04-04T11:12:29.950Z,19.50
2019-04-04T11:14:58.386Z,19.83
2019-04-04T11:17:26.834Z,22.90
2019-04-04T11:19:55.275Z,20.80
2019-04-04T11:22:23.705Z,22.53
2019-04-04T11:24:52.213Z,20.10
2019-04-04T11:27:20.976Z,23.20
2019-04-04T11:29:49.413Z,19.53
2019-04-04T11:32:17.828Z,24.47
2019-04-04T11:34:53.063Z,22.20
2019-04-04T11:37:16.406Z,21.83
2019-04-04T11:39:54.440Z,33.53
2019-04-04T11:42:15.281Z,21.60
2019-04-04T11:44:49.329Z,19.43
2019-04-04T11:47:17.754Z,20.87
2019-04-04T11:49:46.185Z,19.47
2019-04-04T11:52:14.614Z,25.87
2019-04-04T11:55:02.023Z,18.93
2019-04-04T11:57:30.462Z,20.53
2019-04-04T11:59:58.895Z,21.13
2019-04-04T12:02:28.710Z,20.77
2019-04-04T12:04:57.924Z,20.30
2019-04-04T12:07:26.512Z,21.40
2019-04-04T12:10:06.736Z,19.43
2019-04-04T12:12:25.435Z,20.27
2019-04-04T12:14:53.851Z,24.60
2019-04-04T12:17:22.267Z,19.57
2019-04-04T12:19:50.700Z,21.67
2019-04-04T12:22:19.109Z,21.70
2019-04-04T12:24:47.559Z,20.10
2019-04-04T12:27:15.977Z,21.33
2019-04-04T12:29:44.387Z,20.47
2019-04-04T12:32:12.818Z,24.13
2019-04-04T12:34:41.234Z,25.00
2019-04-04T12:37:09.936Z,21.30
2019-04-04T12:39:38.382Z,23.67
2019-04-04T12:42:06.900Z,26.27
2019-04-04T12:44:35.311Z,24.73
2019-04-04T12:47:03.740Z,24.57
2019-04-04T12:49:32.167Z,22.70
2019-04-04T12:52:00.657Z,21.77
2019-04-04T12:54:31.963Z,24.83
2019-04-04T12:57:00.395Z,25.13
2019-04-04T12:59:28.825Z,23.70
2019-04-04T13:01:57.331Z,29.90
2019-04-04T13:04:31.582Z,26.60
2019-04-04T13:06:55.905Z,31.60
2019-04-04T13:09:24.321Z,27.60
2019-04-04T13:11:52.776Z,24.27
2019-04-04T13:14:21.194Z,24.60
2019-04-04T13:16:49.611Z,29.13
2019-04-04T13:19:18.311Z,25.70
2019-04-04T13:21:46.726Z,36.83
2019-04-04T13:24:15.160Z,27.77
2019-04-04T13:26:43.595Z,25.97
2019-04-04T13:29:12.046Z,27.07
2019-04-04T13:31:40.460Z,31.47
2019-04-04T13:34:08.882Z,28.97
2019-04-04T13:36:37.339Z,28.47
2019-04-04T13:39:09.711Z,29.57
2019-04-04T13:41:38.401Z,30.10
2019-04-04T13:44:06.891Z,29.20
2019-04-04T13:46:35.323Z,28.03
2019-04-04T13:49:03.738Z,28.60
2019-04-04T13:51:32.172Z,26.77
2019-04-04T13:54:00.586Z,28.00
2019-04-04T13:56:29.291Z,29.40
2019-04-04T13:59:00.998Z,26.50
2019-04-04T14:01:28.767Z,28.67
2019-04-04T14:03:57.254Z,28.00
2019-04-04T14:06:25.678Z,28.57
2019-04-04T14:08:54.101Z,26.60
2019-04-04T14:11:22.515Z,24.13
2019-04-04T14:13:50.949Z,24.63
2019-04-04T14:16:19.390Z,27.03
2019-04-04T14:18:47.818Z,24.33
2019-04-04T14:21:16.242Z,24.93
2019-04-04T14:23:45.425Z,22.37
2019-04-04T14:26:14.090Z,24.07
2019-04-04T14:28:42.523Z,24.70
2019-04-04T14:31:10.958Z,22.53
2019-04-04T14:33:39.386Z,28.93
2019-04-04T14:36:07.818Z,27.27
2019-04-04T14:38:36.237Z,22.57
2019-04-04T14:41:11.021Z,24.43
2019-04-04T14:43:34.822Z,24.03
2019-04-04T14:46:03.248Z,24.57
2019-04-04T14:48:31.679Z,26.10
2019-04-04T14:51:00.093Z,25.27
2019-04-04T14:53:28.526Z,25.33
2019-04-04T14:55:56.950Z,23.97
2019-04-04T14:58:25.373Z,33.20
2019-04-04T15:00:53.796Z,26.40
2019-04-04T15:03:22.211Z,29.60
2019-04-04T15:05:50.639Z,28.00
2019-04-04T15:08:19.057Z,26.37
2019-04-04T15:10:47.495Z,35.83
2019-04-04T15:13:35.247Z,30.10
2019-04-04T15:16:12.007Z,27.47
2019-04-04T15:18:40.706Z,28.90
2019-04-04T15:21:09.974Z,24.40
2019-04-04T15:23:38.407Z,24.60
2019-04-04T15:26:09.651Z,28.10
2019-04-04T15:28:36.970Z,26.90
2019-04-04T15:31:05.863Z,24.40
2019-04-04T15:33:34.664Z,22.80
2019-04-04T15:36:03.089Z,25.53
2019-04-04T15:38:31.515Z,24.60
2019-04-04T15:40:59.924Z,24.70
2019-04-04T15:43:28.345Z,26.63
2019-04-04T15:45:56.763Z,23.23
2019-04-04T15:48:25.194Z,25.87
2019-04-04T15:50:53.622Z,33.87
2019-04-04T15:53:22.043Z,25.13
2019-04-04T15:55:50.499Z,24.93
2019-04-04T15:58:18.903Z,23.27
2019-04-04T16:00:47.330Z,25.83
2019-04-04T16:03:15.757Z,27.60
2019-04-04T16:05:44.162Z,27.93
2019-04-04T16:08:12.586Z,25.70
2019-04-04T16:13:23.610Z,27.70
2019-04-04T16:15:52.033Z,25.03
2019-04-04T16:18:20.455Z,20.07
2019-04-04T16:20:48.866Z,22.57
2019-04-04T16:23:17.294Z,19.20
2019-04-04T16:25:45.744Z,23.60
2019-04-04T16:28:14.153Z,19.70
2019-04-04T16:30:42.564Z,18.40
2019-04-04T16:33:10.997Z,20.73
2019-04-04T16:35:39.407Z,19.30
2019-04-04T16:38:07.902Z,17.87
2019-04-04T16:40:36.461Z,18.40
2019-04-04T16:43:04.951Z,18.73
2019-04-04T16:45:33.366Z,17.47
2019-04-04T16:48:01.789Z,21.73
2019-04-04T16:50:30.240Z,21.57
2019-04-04T16:52:58.651Z,20.47
2019-04-04T16:55:27.058Z,23.20
2019-04-04T16:57:55.492Z,18.17
2019-04-04T17:00:24.555Z,21.60
2019-04-04T17:02:53.051Z,18.37
2019-04-04T17:05:21.480Z,20.43
2019-04-04T17:07:49.896Z,19.27
2019-04-04T17:10:18.775Z,19.63
2019-04-04T17:12:47.187Z,18.80
2019-04-04T17:15:15.751Z,18.27
2019-04-04T17:17:44.186Z,17.80
2019-04-04T17:20:12.933Z,18.23
2019-04-04T17:22:41.352Z,19.07
2019-04-04T17:25:10.503Z,18.00
2019-04-04T17:27:38.970Z,19.17
2019-04-04T17:30:14.199Z,18.00
2019-04-04T17:32:43.166Z,16.70
2019-04-04T17:35:12.055Z,18.37
2019-04-04T17:37:40.470Z,18.30
2019-04-04T17:40:10.262Z,19.50
2019-04-04T17:42:38.811Z,22.23
2019-04-04T17:45:11.636Z,24.67
2019-04-04T17:47:40.119Z,18.40
2019-04-04T17:50:11.824Z,16.47
2019-04-04T17:52:40.544Z,18.37
2019-04-04T17:55:09.873Z,17.77
2019-04-04T17:57:38.499Z,19.80
2019-04-04T18:00:08.826Z,19.07
2019-04-04T18:02:37.334Z,17.17
2019-04-04T18:05:08.907Z,16.40
2019-04-04T18:07:37.368Z,18.97
2019-04-04T18:10:06.948Z,17.83
2019-04-04T18:12:40.358Z,17.40
2019-04-04T18:15:10.211Z,16.10
2019-04-04T18:17:38.650Z,17.13
2019-04-04T18:20:08.608Z,15.60
2019-04-04T18:22:37.561Z,17.90
2019-04-04T18:25:07.323Z,17.10
2019-04-04T18:27:35.824Z,17.07
2019-04-04T18:30:07.349Z,17.77
2019-04-04T18:32:35.769Z,16.80
2019-04-04T18:35:06.175Z,17.20
2019-04-04T18:37:34.783Z,16.60
2019-04-04T18:40:04.859Z,19.07
2019-04-04T18:42:33.319Z,16.57
2019-04-04T18:45:01.754Z,17.23
2019-04-04T18:47:30.353Z,20.53
2019-04-04T18:49:58.767Z,23.07
2019-04-04T18:52:27.238Z,21.60
2019-04-04T18:54:55.662Z,20.63
2019-04-04T18:57:24.094Z,21.27
2019-04-04T18:59:52.534Z,21.27
2019-04-04T19:02:20.944Z,15.70
2019-04-04T19:04:50.428Z,16.10
2019-04-04T19:07:18.916Z,16.20
2019-04-04T19:09:47.350Z,17.77
2019-04-04T19:12:15.950Z,16.60
2019-04-04T19:14:44.418Z,19.83
2019-04-04T19:17:13.049Z,17.60
2019-04-04T19:19:41.482Z,16.10
2019-04-04T19:22:09.888Z,17.80
2019-04-04T19:24:38.310Z,18.40
2019-04-04T19:27:06.886Z,18.23
2019-04-04T19:29:35.408Z,18.20
2019-04-04T19:32:04.286Z,19.40
2019-04-04T19:34:32.758Z,20.47
2019-04-04T19:37:01.193Z,17.80
2019-04-04T19:39:49.003Z,17.83
2019-04-04T19:42:17.922Z,19.63
2019-04-04T19:44:53.056Z,18.03
2019-04-04T19:47:16.492Z,18.30
2019-04-04T19:49:44.941Z,19.03
2019-04-04T19:52:13.471Z,19.00
2019-04-04T19:54:41.946Z,18.97
2019-04-04T19:57:10.380Z,20.63
2019-04-04T19:59:38.818Z,26.20
2019-04-04T20:02:07.239Z,20.80
2019-04-04T20:04:35.814Z,16.77
2019-04-04T20:07:04.221Z,17.97
2019-04-04T20:09:32.667Z,19.67
2019-04-04T20:12:01.098Z,21.63
2019-04-04T20:14:29.582Z,17.93
2019-04-04T20:16:58.139Z,19.47
2019-04-04T20:19:26.675Z,17.80
2019-04-04T20:21:56.502Z,21.63
2019-04-04T20:24:25.265Z,18.70
2019-04-04T20:26:53.786Z,18.40
2019-04-04T20:29:22.252Z,17.43
2019-04-04T20:31:50.686Z,21.10
2019-04-04T20:34:19.101Z,17.90
2019-04-04T20:36:47.720Z,18.37
2019-04-04T20:39:16.134Z,17.73
2019-04-04T20:41:44.570Z,20.67
2019-04-04T20:44:12.977Z,24.83
2019-04-04T20:46:41.431Z,19.13
2019-04-04T20:49:09.878Z,19.77
2019-04-04T20:51:38.397Z,19.40
2019-04-04T20:54:06.836Z,17.80
2019-04-04T20:56:35.254Z,17.80
2019-04-04T20:59:03.697Z,18.60
2019-04-04T21:01:32.099Z,19.87
2019-04-04T21:04:00.566Z,18.83
2019-04-04T21:06:29.031Z,16.80
2019-04-04T21:08:57.464Z,19.27
2019-04-04T21:11:25.875Z,18.73
2019-04-04T21:13:56.315Z,18.40
2019-04-04T21:16:24.674Z,19.10
2019-04-04T21:18:53.084Z,19.00
2019-04-04T21:21:21.518Z,21.13
2019-04-04T21:23:49.942Z,19.57
2019-04-04T21:26:18.352Z,20.63
2019-04-04T21:28:46.762Z,21.50
2019-04-04T21:31:15.539Z,26.13
2019-04-04T21:33:43.949Z,24.33
2019-04-04T21:36:12.383Z,21.93
2019-04-04T21:38:41.168Z,25.53
2019-04-04T21:41:09.981Z,27.73
2019-04-04T21:43:38.394Z,27.20
2019-04-04T21:46:06.830Z,30.13
2019-04-04T21:48:35.265Z,28.73
2019-04-04T21:51:03.698Z,31.90
2019-04-04T21:53:32.113Z,34.37
2019-04-04T21:56:00.531Z,30.50
2019-04-04T21:58:28.959Z,35.20
2019-04-04T22:00:57.642Z,24.03
2019-04-04T22:03:26.075Z,28.77
2019-04-04T22:05:54.477Z,23.17
2019-04-04T22:08:22.895Z,24.87
2019-04-04T22:10:51.357Z,22.87
2019-04-04T22:13:19.773Z,23.50
2019-04-04T22:15:48.207Z,22.40
2019-04-04T22:18:16.641Z,19.33
2019-04-04T22:20:45.067Z,18.87
2019-04-04T22:23:13.745Z,19.63
2019-04-04T22:25:42.164Z,18.50
2019-04-04T22:28:10.575Z,17.53
2019-04-04T22:30:39.002Z,19.27
2019-04-04T22:33:07.412Z,18.73
2019-04-04T22:35:35.894Z,17.90
2019-04-04T22:38:04.603Z,21.03
2019-04-04T22:40:33.023Z,21.70
2019-04-04T22:43:01.433Z,21.40
2019-04-04T22:45:29.864Z,18.57
2019-04-04T22:47:58.274Z,20.57
2019-04-04T22:50:26.780Z,19.53
2019-04-04T22:52:55.206Z,19.97
2019-04-04T22:55:26.418Z,20.90
2019-04-04T22:57:53.772Z,20.77
2019-04-04T23:00:22.517Z,26.80
2019-04-04T23:02:50.948Z,18.27
2019-04-04T23:05:19.358Z,19.63
2019-04-04T23:08:07.620Z,20.10
2019-04-04T23:10:36.213Z,20.60
2019-04-04T23:13:04.641Z,18.80
2019-04-04T23:15:33.046Z,18.50
2019-04-04T23:18:01.475Z,19.07
2019-04-04T23:20:29.887Z,20.37
2019-04-04T23:23:01.069Z,18.77
2019-04-04T23:25:28.445Z,20.33
2019-04-04T23:27:56.863Z,20.33
2019-04-04T23:30:25.297Z,21.53
2019-04-04T23:32:53.719Z,18.77
2019-04-04T23:35:22.139Z,23.07
2019-04-04T23:37:50.561Z,17.27
2019-04-04T23:40:18.979Z,18.53
2019-04-04T23:42:47.400Z,20.43
2019-04-04T23:45:15.823Z,18.93
2019-04-04T23:47:44.234Z,20.30
2019-04-04T23:50:13.101Z,18.40
2019-04-04T23:52:41.508Z,19.10
2019-04-04T23:55:10.112Z,19.33
2019-04-04T23:57:38.527Z,21.83
